Terminal Aerodrome Forecast
Issued by NWS

Home | Current Version | Previous Version | Text Only | Print | Product List | Glossary On
Versions: 1 2 3 4 5 6 7 8 9 10 11 12 13 14 15 16 17 18 19 20 21 22 23
000
FTAK31 PANC 200952 AAA
TAFADL
TAF AMD
PADL 200952Z 2010/2106 32005KT 1/2SM -DZ FG OVC003
      TEMPO 2010/2012 3SM -SN BR SCT003 OVC015
     FM201200 36005KT P6SM SCT025 BKN100=

USA.gov is the U.S. government's official web portal to all federal, state and local government web resources and services.